Time,TemperatureF,DewpointF,PressureIn,WindDirection,WindDirectionDegrees,WindSpeedMPH,WindSpeedGustMPH,Humidity,HourlyPrecipIn,Conditions,Clouds,dailyrainin,SoftwareType,DateUTC
2013-05-05 00:00:00,45.0,38.0,30.28,SE,125,4.0,-999.0,77,-99.99,,,0.00,weatherlink.com 1.10,2013-05-05 04:00:00,
2013-05-05 00:16:00,44.6,38.0,30.28,SE,125,2.0,-999.0,78,-99.99,,,0.00,weatherlink.com 1.10,2013-05-05 04:16:00,
2013-05-05 00:31:00,44.2,38.0,30.28,SE,125,0.0,-999.0,79,-99.99,,,0.00,weatherlink.com 1.10,2013-05-05 04:31:00,
2013-05-05 00:46:00,43.8,38.0,30.28,SE,125,0.0,-999.0,81,-99.99,,,0.00,weatherlink.com 1.10,2013-05-05 04:46:00,
2013-05-05 01:01:00,43.1,38.0,30.28,SE,125,0.0,-999.0,82,-99.99,,,0.00,weatherlink.com 1.10,2013-05-05 05:01:00,
2013-05-05 01:17:00,42.8,38.0,30.27,SE,125,0.0,-999.0,83,-99.99,,,0.00,weatherlink.com 1.10,2013-05-05 05:17:00,
2013-05-05 01:32:00,42.3,38.0,30.27,SE,125,0.0,-999.0,83,-99.99,,,0.00,weatherlink.com 1.10,2013-05-05 05:32:00,
2013-05-05 01:47:00,41.7,37.0,30.27,SE,125,0.0,-999.0,84,-99.99,,,0.00,weatherlink.com 1.10,2013-05-05 05:47:00,
2013-05-05 02:03:00,41.1,37.0,30.26,SE,125,0.0,-999.0,85,-99.99,,,0.00,weatherlink.com 1.10,2013-05-05 06:03:00,
2013-05-05 02:18:00,41.5,38.0,30.26,SE,125,4.0,-999.0,88,-99.99,,,0.00,weatherlink.com 1.10,2013-05-05 06:18:00,
2013-05-05 02:33:00,42.9,39.0,30.26,SE,132,2.0,-999.0,87,-99.99,,,0.00,weatherlink.com 1.10,2013-05-05 06:33:00,
2013-05-05 02:48:00,43.5,40.0,30.25,SE,144,0.0,-999.0,86,-99.99,,,0.00,weatherlink.com 1.10,2013-05-05 06:48:00,
2013-05-05 03:06:00,43.7,40.0,30.26,East,92,0.0,-999.0,85,-99.99,,,0.00,weatherlink.com 1.10,2013-05-05 07:06:00,
2013-05-05 03:20:00,43.8,40.0,30.26,East,92,5.0,-999.0,85,-99.99,,,0.00,weatherlink.com 1.10,2013-05-05 07:20:00,
2013-05-05 03:35:00,43.8,39.0,30.25,ESE,107,4.0,-999.0,84,-99.99,,,0.00,weatherlink.com 1.10,2013-05-05 07:35:00,
2013-05-05 03:50:00,43.8,39.0,30.25,ESE,117,5.0,-999.0,84,-99.99,,,0.00,weatherlink.com 1.10,2013-05-05 07:50:00,
2013-05-05 04:05:00,43.8,39.0,30.25,ESE,119,0.0,-999.0,84,-99.99,,,0.00,weatherlink.com 1.10,2013-05-05 08:05:00,
2013-05-05 04:20:00,43.8,39.0,30.25,ESE,119,0.0,-999.0,84,-99.99,,,0.00,weatherlink.com 1.10,2013-05-05 08:20:00,
2013-05-05 04:35:00,43.7,39.0,30.25,ESE,119,0.0,-999.0,84,-99.99,,,0.00,weatherlink.com 1.10,2013-05-05 08:35:00,
2013-05-05 04:50:00,43.6,39.0,30.25,ESE,119,0.0,-999.0,84,-99.99,,,0.00,weatherlink.com 1.10,2013-05-05 08:50:00,
2013-05-05 05:06:00,43.5,39.0,30.25,ESE,113,0.0,-999.0,83,-99.99,,,0.00,weatherlink.com 1.10,2013-05-05 09:06:00,
2013-05-05 05:21:00,43.3,39.0,30.25,ESE,113,0.0,-999.0,83,-99.99,,,0.00,weatherlink.com 1.10,2013-05-05 09:21:00,
2013-05-05 05:36:00,43.1,38.0,30.25,ESE,111,4.0,-999.0,83,-99.99,,,0.00,weatherlink.com 1.10,2013-05-05 09:36:00,
2013-05-05 05:52:00,43.0,38.0,30.25,ESE,110,1.0,-999.0,83,-99.99,,,0.00,weatherlink.com 1.10,2013-05-05 09:52:00,
2013-05-05 06:07:00,43.2,38.0,30.25,East,93,1.0,-999.0,82,-99.99,,,0.00,weatherlink.com 1.10,2013-05-05 10:07:00,
2013-05-05 06:22:00,43.3,38.0,30.26,SE,136,4.0,-999.0,82,-99.99,,,0.00,weatherlink.com 1.10,2013-05-05 10:22:00,
2013-05-05 06:37:00,43.4,38.0,30.26,ESE,102,4.0,-999.0,81,-99.99,,,0.00,weatherlink.com 1.10,2013-05-05 10:37:00,
2013-05-05 06:53:00,43.4,38.0,30.26,ESE,113,2.0,-999.0,82,-99.99,,,0.00,weatherlink.com 1.10,2013-05-05 10:53:00,
2013-05-05 07:08:00,43.9,38.0,30.26,NE,51,5.0,-999.0,81,-99.99,,,0.00,weatherlink.com 1.10,2013-05-05 11:08:00,
2013-05-05 07:23:00,44.6,38.0,30.26,ESE,113,4.0,-999.0,79,-99.99,,,0.00,weatherlink.com 1.10,2013-05-05 11:23:00,
2013-05-05 07:38:00,45.4,39.0,30.27,ESE,103,5.0,-999.0,78,-99.99,,,0.00,weatherlink.com 1.10,2013-05-05 11:38:00,
2013-05-05 07:55:00,45.6,39.0,30.27,SSE,147,2.0,-999.0,77,-99.99,,,0.00,weatherlink.com 1.10,2013-05-05 11:55:00,
2013-05-05 08:10:00,46.3,38.0,30.27,East,84,3.0,-999.0,74,-99.99,,,0.00,weatherlink.com 1.10,2013-05-05 12:10:00,
2013-05-05 08:26:00,46.2,39.0,30.27,ENE,72,4.0,-999.0,75,-99.99,,,0.00,weatherlink.com 1.10,2013-05-05 12:26:00,
2013-05-05 08:40:00,46.6,38.0,30.27,SE,126,4.0,-999.0,72,-99.99,,,0.00,weatherlink.com 1.10,2013-05-05 12:40:00,
2013-05-05 08:55:00,47.2,38.0,30.27,East,98,7.0,-999.0,71,-99.99,,,0.00,weatherlink.com 1.10,2013-05-05 12:55:00,
2013-05-05 09:10:00,47.7,38.0,30.27,ESE,108,4.0,-999.0,70,-99.99,,,0.00,weatherlink.com 1.10,2013-05-05 13:10:00,
2013-05-05 09:26:00,48.9,39.0,30.27,SE,126,5.0,-999.0,68,-99.99,,,0.00,weatherlink.com 1.10,2013-05-05 13:26:00,
2013-05-05 09:41:00,49.5,39.0,30.27,ENE,74,2.0,-999.0,67,-99.99,,,0.00,weatherlink.com 1.10,2013-05-05 13:41:00,
2013-05-05 09:56:00,51.2,39.0,30.27,NE,49,5.0,-999.0,64,-99.99,,,0.00,weatherlink.com 1.10,2013-05-05 13:56:00,
2013-05-05 10:12:00,51.5,39.0,30.27,East,85,2.0,-999.0,63,-99.99,,,0.00,weatherlink.com 1.10,2013-05-05 14:12:00,
2013-05-05 10:26:00,52.0,40.0,30.27,SE,126,2.0,-999.0,64,-99.99,,,0.00,weatherlink.com 1.10,2013-05-05 14:26:00,
2013-05-05 10:42:00,52.4,39.0,30.27,ESE,113,5.0,-999.0,61,-99.99,,,0.00,weatherlink.com 1.10,2013-05-05 14:42:00,
2013-05-05 10:57:00,53.6,40.0,30.26,SSE,152,2.0,-999.0,61,-99.99,,,0.00,weatherlink.com 1.10,2013-05-05 14:57:00,
2013-05-05 11:12:00,53.7,39.0,30.26,East,101,7.0,-999.0,59,-99.99,,,0.00,weatherlink.com 1.10,2013-05-05 15:12:00,
2013-05-05 11:28:00,54.4,40.0,30.26,ENE,62,1.0,-999.0,58,-99.99,,,0.00,weatherlink.com 1.10,2013-05-05 15:28:00,
2013-05-05 11:43:00,54.8,41.0,30.26,SE,126,9.0,-999.0,59,-99.99,,,0.00,weatherlink.com 1.10,2013-05-05 15:43:00,
2013-05-05 11:58:00,55.4,40.0,30.25,ESE,102,6.0,-999.0,56,-99.99,,,0.00,weatherlink.com 1.10,2013-05-05 15:58:00,
2013-05-05 12:13:00,55.5,39.0,30.25,SSE,151,0.0,-999.0,55,-99.99,,,0.00,weatherlink.com 1.10,2013-05-05 16:13:00,
2013-05-05 12:28:00,57.3,41.0,30.25,SE,132,7.0,-999.0,54,-99.99,,,0.00,weatherlink.com 1.10,2013-05-05 16:28:00,
2013-05-05 12:45:00,58.0,42.0,30.24,East,79,4.0,-999.0,55,-99.99,,,0.00,weatherlink.com 1.10,2013-05-05 16:45:00,
2013-05-05 13:00:00,58.2,40.0,30.24,SE,129,8.0,-999.0,51,-99.99,,,0.00,weatherlink.com 1.10,2013-05-05 17:00:00,
2013-05-05 13:15:00,59.0,39.0,30.23,SE,126,11.0,-999.0,48,-99.99,,,0.00,weatherlink.com 1.10,2013-05-05 17:15:00,
2013-05-05 13:30:00,60.0,40.0,30.23,SE,134,5.0,-999.0,48,-99.99,,,0.00,weatherlink.com 1.10,2013-05-05 17:30:00,
2013-05-05 13:48:00,61.1,41.0,30.23,ESE,109,5.0,-999.0,47,-99.99,,,0.00,weatherlink.com 1.10,2013-05-05 17:48:00,
2013-05-05 14:00:00,60.8,41.0,30.23,ESE,119,7.0,-999.0,48,-99.99,,,0.00,weatherlink.com 1.10,2013-05-05 18:00:00,
2013-05-05 14:16:00,61.4,40.0,30.22,ESE,105,4.0,-999.0,45,-99.99,,,0.00,weatherlink.com 1.10,2013-05-05 18:16:00,
2013-05-05 14:31:00,61.4,39.0,30.22,East,98,6.0,-999.0,43,-99.99,,,0.00,weatherlink.com 1.10,2013-05-05 18:31:00,
2013-05-05 14:47:00,62.2,40.0,30.21,NE,54,6.0,-999.0,44,-99.99,,,0.00,weatherlink.com 1.10,2013-05-05 18:47:00,
2013-05-05 15:02:00,63.5,39.0,30.21,ESE,120,6.0,-999.0,41,-99.99,,,0.00,weatherlink.com 1.10,2013-05-05 19:02:00,
2013-05-05 15:18:00,62.5,40.0,30.21,ESE,116,1.0,-999.0,44,-99.99,,,0.00,weatherlink.com 1.10,2013-05-05 19:18:00,
2013-05-05 15:32:00,63.1,42.0,30.20,SE,124,5.0,-999.0,47,-99.99,,,0.00,weatherlink.com 1.10,2013-05-05 19:32:00,
2013-05-05 15:47:00,63.0,42.0,30.21,NE,52,4.0,-999.0,47,-99.99,,,0.00,weatherlink.com 1.10,2013-05-05 19:47:00,
2013-05-05 16:03:00,63.8,42.0,30.20,East,92,4.0,-999.0,46,-99.99,,,0.00,weatherlink.com 1.10,2013-05-05 20:03:00,
2013-05-05 16:18:00,63.5,44.0,30.20,SE,138,0.0,-999.0,49,-99.99,,,0.00,weatherlink.com 1.10,2013-05-05 20:18:00,
2013-05-05 16:33:00,62.5,43.0,30.20,SE,136,4.0,-999.0,49,-99.99,,,0.00,weatherlink.com 1.10,2013-05-05 20:33:00,
2013-05-05 16:48:00,61.4,42.0,30.20,SE,145,4.0,-999.0,50,-99.99,,,0.00,weatherlink.com 1.10,2013-05-05 20:48:00,
2013-05-05 17:03:00,61.3,44.0,30.20,East,99,5.0,-999.0,53,-99.99,,,0.00,weatherlink.com 1.10,2013-05-05 21:03:00,
2013-05-05 17:21:00,59.9,43.0,30.20,ESE,113,4.0,-999.0,53,-99.99,,,0.00,weatherlink.com 1.10,2013-05-05 21:21:00,
2013-05-05 17:35:00,59.9,43.0,30.20,ESE,122,6.0,-999.0,53,-99.99,,,0.00,weatherlink.com 1.10,2013-05-05 21:35:00,
2013-05-05 17:50:00,59.0,42.0,30.20,SE,145,6.0,-999.0,54,-99.99,,,0.00,weatherlink.com 1.10,2013-05-05 21:50:00,
2013-05-05 18:05:00,58.7,42.0,30.20,SE,135,8.0,-999.0,55,-99.99,,,0.00,weatherlink.com 1.10,2013-05-05 22:05:00,
2013-05-05 18:20:00,58.3,41.0,30.21,East,93,5.0,-999.0,54,-99.99,,,0.00,weatherlink.com 1.10,2013-05-05 22:20:00,
2013-05-05 18:35:00,57.8,41.0,30.21,SE,139,5.0,-999.0,54,-99.99,,,0.00,weatherlink.com 1.10,2013-05-05 22:35:00,
2013-05-05 18:50:00,56.8,41.0,30.21,ESE,114,4.0,-999.0,55,-99.99,,,0.00,weatherlink.com 1.10,2013-05-05 22:50:00,
2013-05-05 19:08:00,56.0,41.0,30.22,SSE,161,5.0,-999.0,57,-99.99,,,0.00,weatherlink.com 1.10,2013-05-05 23:08:00,
2013-05-05 19:21:00,55.1,41.0,30.22,South,177,1.0,-999.0,59,-99.99,,,0.00,weatherlink.com 1.10,2013-05-05 23:21:00,
2013-05-05 19:36:00,54.4,41.0,30.22,ESE,103,5.0,-999.0,61,-99.99,,,0.00,weatherlink.com 1.10,2013-05-05 23:36:00,
2013-05-05 19:51:00,53.4,41.0,30.22,ESE,105,1.0,-999.0,64,-99.99,,,0.00,weatherlink.com 1.10,2013-05-05 23:51:00,
2013-05-05 20:06:00,52.6,41.0,30.23,East,81,1.0,-999.0,66,-99.99,,,0.00,weatherlink.com 1.10,2013-05-06 00:06:00,
2013-05-05 20:23:00,51.7,41.0,30.23,ESE,118,1.0,-999.0,68,-99.99,,,0.00,weatherlink.com 1.10,2013-05-06 00:23:00,
2013-05-05 20:38:00,51.1,42.0,30.23,SE,125,1.0,-999.0,70,-99.99,,,0.00,weatherlink.com 1.10,2013-05-06 00:38:00,
2013-05-05 20:52:00,50.4,42.0,30.23,ESE,123,2.0,-999.0,72,-99.99,,,0.00,weatherlink.com 1.10,2013-05-06 00:52:00,
2013-05-05 21:08:00,50.0,42.0,30.23,ESE,110,5.0,-999.0,74,-99.99,,,0.00,weatherlink.com 1.10,2013-05-06 01:08:00,
2013-05-05 21:23:00,49.2,42.0,30.24,East,100,5.0,-999.0,75,-99.99,,,0.00,weatherlink.com 1.10,2013-05-06 01:23:00,
2013-05-05 21:38:00,48.5,41.0,30.24,ESE,111,1.0,-999.0,76,-99.99,,,0.00,weatherlink.com 1.10,2013-05-06 01:38:00,
2013-05-05 21:53:00,47.7,40.0,30.24,ESE,107,2.0,-999.0,76,-99.99,,,0.00,weatherlink.com 1.10,2013-05-06 01:53:00,
2013-05-05 22:10:00,46.9,40.0,30.24,ESE,123,2.0,-999.0,78,-99.99,,,0.00,weatherlink.com 1.10,2013-05-06 02:10:00,
2013-05-05 22:26:00,46.5,40.0,30.24,ESE,105,4.0,-999.0,79,-99.99,,,0.00,weatherlink.com 1.10,2013-05-06 02:26:00,
2013-05-05 22:40:00,46.1,40.0,30.23,ESE,113,1.0,-999.0,79,-99.99,,,0.00,weatherlink.com 1.10,2013-05-06 02:40:00,
2013-05-05 22:55:00,45.9,40.0,30.23,ESE,113,0.0,-999.0,80,-99.99,,,0.00,weatherlink.com 1.10,2013-05-06 02:55:00,
2013-05-05 23:10:00,45.4,40.0,30.23,ESE,113,1.0,-999.0,81,-99.99,,,0.00,weatherlink.com 1.10,2013-05-06 03:10:00,
2013-05-05 23:25:00,44.8,39.0,30.23,ESE,113,2.0,-999.0,81,-99.99,,,0.00,weatherlink.com 1.10,2013-05-06 03:25:00,
2013-05-05 23:40:00,44.8,39.0,30.23,ESE,113,0.0,-999.0,81,-99.99,,,0.00,weatherlink.com 1.10,2013-05-06 03:40:00,
2013-05-05 23:56:00,44.6,39.0,30.23,ESE,113,2.0,-999.0,81,-99.99,,,0.00,weatherlink.com 1.10,2013-05-06 03:56:00,